Greenfield, MA

8:11 AM EDT on August 22, 2014 (GMT -0400)
Dillant-Hopkins | Change Station
CLOSE
Current Station
Airport
Location: Keene,
Elevation: 489 ft
Nearby Weather Stations

Elev 489 ft 42.90 °N, 72.27 °W | Updated 16 minutes ago

Overcast
Overcast
61 °F
Feels Like 61 °F
N
5
Wind Variable Wind from North

Today
High -- | Low -- °F
--% Chance of Precip.
Yesterday
High -- | Low -- °F
Precip. -- in
6:04 AM 7:41 PM
Waning Crescent, 8% visible
Pressure 30.11 in
Visibility 10.0 miles
Clouds Overcast 3900 ft
Dew Point 52 °F
Humidity 72%
Rainfall 0.06 in
Snow Depth Not available.
UV 0 out of 12
Pollen 4.50 out of 12
Air Quality Not available.
Flu Activity Not available.
METAR KEEN 221155Z AUTO 01004KT 10SM OVC039 16/11 A3011 RMK AO1 60002 70033 10160 20150 52003

More Conditions Fewer Conditions

Pressure 30.11 in
Visibility 10.0 miles
Clouds Overcast 3900 ft
Dew Point 52 °F
Humidity 72%
Rainfall 0.06 in
Snow Depth Not available.
UV 0 out of 12
Pollen 4.50 out of 12
Air Quality Not available.
Flu Activity Not available.
METAR KEEN 221155Z AUTO 01004KT 10SM OVC039 16/11 A3011 RMK AO1 60002 70033 10160 20150 52003

More Conditions Fewer Conditions

10-Day Weather Forecast

Almanac

Astronomy

Aug. 22, 2014 Rise Set
Actual Time 6:04 AM EDT 7:41 PM EDT
Civil Twilight 5:34 AM EDT 8:10 PM EDT
Nautical Twilight 4:58 AM EDT 8:46 PM EDT
Astronomical Twilight 4:20 AM EDT 9:25 PM EDT
Moon 3:23 AM EDT 5:49 PM EDT
Length of Visible Light 14h 36m
Length of Day
13h 36m
Tomorrow will be 2m 39s shorter.
Waning Crescent, 8% of the Moon is Illuminated
Today
Waning Crescent
Aug 25
New
Sep 2
First Quarter
Sep 8
Full
Sep 15
Last Quarter

Today's Extremes

State Highs State Lows

Community

WunderPhotos

Upload Photos

1,746,155 photos uploaded!

WunderBlogs® & News

By Dr. Jeff Masters
Director of Meteorology, Weather Underground
By Kari Strenfel
Meteorologist, Weather Underground
By Christopher C. Burt
Weather Historian, Weather Underground
August 22, 2014
August 22, 2014
August 22, 2014

Nearby

Air Quality

  Air Quality AQ Index Pollutant
Friday Good
PM2.5
Friday Good
OZONE

Snow Depth

Station Depth Elevation
No new snow has been reported.

Earthquake Activity

City Distance Mag. Time & Date
No recent earthquake activity has been reported nearby.
Minimum magnitude displayed is 2.5.

Coastal Water Temperatures

Place Temperature
No Stations Reporting

Nearby Weather Stations